sensor_id;sensor_type;location;lat;lon;timestamp;P1;durP1;ratioP1;P2;durP2;ratioP2
7903;SDS011;3997;48.416;8.512;2022-08-30T00:01:13;6.95;;;6.38;;
7903;SDS011;3997;48.416;8.512;2022-08-30T00:03:41;7.57;;;6.90;;
7903;SDS011;3997;48.416;8.512;2022-08-30T00:06:10;7.50;;;6.82;;
7903;SDS011;3997;48.416;8.512;2022-08-30T00:08:38;7.75;;;6.95;;
7903;SDS011;3997;48.416;8.512;2022-08-30T00:11:06;8.63;;;6.90;;
7903;SDS011;3997;48.416;8.512;2022-08-30T00:13:34;7.93;;;7.25;;
7903;SDS011;3997;48.416;8.512;2022-08-30T00:16:00;7.63;;;6.97;;
7903;SDS011;3997;48.416;8.512;2022-08-30T00:18:27;7.65;;;7.07;;
7903;SDS011;3997;48.416;8.512;2022-08-30T00:20:53;7.72;;;6.93;;
7903;SDS011;3997;48.416;8.512;2022-08-30T00:23:21;7.63;;;7.00;;
7903;SDS011;3997;48.416;8.512;2022-08-30T00:25:49;7.80;;;7.13;;
7903;SDS011;3997;48.416;8.512;2022-08-30T00:28:15;7.60;;;6.78;;
7903;SDS011;3997;48.416;8.512;2022-08-30T00:30:42;7.65;;;7.05;;
7903;SDS011;3997;48.416;8.512;2022-08-30T00:33:09;8.02;;;7.25;;
7903;SDS011;3997;48.416;8.512;2022-08-30T00:35:35;7.30;;;6.60;;
7903;SDS011;3997;48.416;8.512;2022-08-30T00:38:04;7.45;;;6.93;;
7903;SDS011;3997;48.416;8.512;2022-08-30T00:40:30;7.63;;;6.93;;
7903;SDS011;3997;48.416;8.512;2022-08-30T00:42:59;7.22;;;6.63;;
7903;SDS011;3997;48.416;8.512;2022-08-30T00:45:27;8.45;;;7.03;;
7903;SDS011;3997;48.416;8.512;2022-08-30T00:47:54;7.45;;;6.82;;
7903;SDS011;3997;48.416;8.512;2022-08-30T00:50:22;8.20;;;7.40;;
7903;SDS011;3997;48.416;8.512;2022-08-30T00:52:50;7.63;;;7.05;;
7903;SDS011;3997;48.416;8.512;2022-08-30T00:55:18;8.60;;;7.80;;
7903;SDS011;3997;48.416;8.512;2022-08-30T00:57:45;7.47;;;6.97;;
7903;SDS011;3997;48.416;8.512;2022-08-30T01:00:14;7.25;;;6.65;;
7903;SDS011;3997;48.416;8.512;2022-08-30T01:02:41;7.90;;;7.22;;
7903;SDS011;3997;48.416;8.512;2022-08-30T01:05:08;7.40;;;6.80;;
7903;SDS011;3997;48.416;8.512;2022-08-30T01:07:36;8.20;;;7.50;;
7903;SDS011;3997;48.416;8.512;2022-08-30T01:10:03;7.40;;;6.70;;
7903;SDS011;3997;48.416;8.512;2022-08-30T01:12:30;8.15;;;6.63;;
7903;SDS011;3997;48.416;8.512;2022-08-30T01:14:57;7.25;;;6.65;;
7903;SDS011;3997;48.416;8.512;2022-08-30T01:17:25;7.00;;;6.50;;
7903;SDS011;3997;48.416;8.512;2022-08-30T01:19:52;8.00;;;7.20;;
7903;SDS011;3997;48.416;8.512;2022-08-30T01:22:22;7.32;;;6.72;;
7903;SDS011;3997;48.416;8.512;2022-08-30T01:24:53;7.85;;;7.15;;
7903;SDS011;3997;48.416;8.512;2022-08-30T01:27:21;8.70;;;7.28;;
7903;SDS011;3997;48.416;8.512;2022-08-30T01:29:47;7.90;;;7.30;;
7903;SDS011;3997;48.416;8.512;2022-08-30T01:32:15;7.70;;;7.13;;
7903;SDS011;3997;48.416;8.512;2022-08-30T01:34:43;7.60;;;6.97;;
7903;SDS011;3997;48.416;8.512;2022-08-30T01:37:11;8.07;;;7.47;;
7903;SDS011;3997;48.416;8.512;2022-08-30T01:39:37;8.48;;;7.78;;
7903;SDS011;3997;48.416;8.512;2022-08-30T01:42:05;7.72;;;7.13;;
7903;SDS011;3997;48.416;8.512;2022-08-30T01:44:31;8.23;;;7.55;;
7903;SDS011;3997;48.416;8.512;2022-08-30T01:46:58;8.45;;;7.65;;
7903;SDS011;3997;48.416;8.512;2022-08-30T01:49:24;8.30;;;7.50;;
7903;SDS011;3997;48.416;8.512;2022-08-30T01:51:51;8.68;;;7.57;;
7903;SDS011;3997;48.416;8.512;2022-08-30T01:54:17;8.43;;;7.60;;
7903;SDS011;3997;48.416;8.512;2022-08-30T01:56:44;8.23;;;7.47;;
7903;SDS011;3997;48.416;8.512;2022-08-30T01:59:12;8.15;;;7.55;;
7903;SDS011;3997;48.416;8.512;2022-08-30T02:01:38;8.13;;;7.38;;
7903;SDS011;3997;48.416;8.512;2022-08-30T02:04:06;7.97;;;7.38;;
7903;SDS011;3997;48.416;8.512;2022-08-30T02:06:33;7.65;;;7.00;;
7903;SDS011;3997;48.416;8.512;2022-08-30T02:09:00;7.78;;;7.07;;
7903;SDS011;3997;48.416;8.512;2022-08-30T02:11:26;8.27;;;7.47;;
7903;SDS011;3997;48.416;8.512;2022-08-30T02:13:53;9.15;;;8.30;;
7903;SDS011;3997;48.416;8.512;2022-08-30T02:16:22;9.15;;;7.45;;
7903;SDS011;3997;48.416;8.512;2022-08-30T02:18:49;8.10;;;7.35;;
7903;SDS011;3997;48.416;8.512;2022-08-30T02:21:16;9.57;;;8.65;;
7903;SDS011;3997;48.416;8.512;2022-08-30T02:23:43;8.43;;;7.80;;
7903;SDS011;3997;48.416;8.512;2022-08-30T02:26:10;8.65;;;7.95;;
7903;SDS011;3997;48.416;8.512;2022-08-30T02:28:37;8.73;;;7.88;;
7903;SDS011;3997;48.416;8.512;2022-08-30T02:31:03;8.70;;;8.05;;
7903;SDS011;3997;48.416;8.512;2022-08-30T02:33:31;8.63;;;7.88;;
7903;SDS011;3997;48.416;8.512;2022-08-30T02:35:57;8.93;;;8.13;;
7903;SDS011;3997;48.416;8.512;2022-08-30T02:38:24;7.93;;;7.22;;
7903;SDS011;3997;48.416;8.512;2022-08-30T02:40:51;8.20;;;7.45;;
7903;SDS011;3997;48.416;8.512;2022-08-30T02:43:17;9.30;;;8.40;;
7903;SDS011;3997;48.416;8.512;2022-08-30T02:45:44;8.77;;;7.97;;
7903;SDS011;3997;48.416;8.512;2022-08-30T02:48:10;8.75;;;7.95;;
7903;SDS011;3997;48.416;8.512;2022-08-30T02:50:39;6.97;;;6.38;;
7903;SDS011;3997;48.416;8.512;2022-08-30T02:53:06;7.53;;;6.72;;
7903;SDS011;3997;48.416;8.512;2022-08-30T02:55:32;7.75;;;6.88;;
7903;SDS011;3997;48.416;8.512;2022-08-30T02:57:59;7.18;;;6.47;;
7903;SDS011;3997;48.416;8.512;2022-08-30T03:00:26;8.07;;;7.38;;
7903;SDS011;3997;48.416;8.512;2022-08-30T03:02:53;8.32;;;7.63;;
7903;SDS011;3997;48.416;8.512;2022-08-30T03:05:19;8.73;;;7.93;;
7903;SDS011;3997;48.416;8.512;2022-08-30T03:07:47;8.32;;;7.53;;
7903;SDS011;3997;48.416;8.512;2022-08-30T03:10:14;7.57;;;6.97;;
7903;SDS011;3997;48.416;8.512;2022-08-30T03:12:41;8.45;;;7.75;;
7903;SDS011;3997;48.416;8.512;2022-08-30T03:15:08;8.27;;;7.57;;
7903;SDS011;3997;48.416;8.512;2022-08-30T03:17:36;8.32;;;7.60;;
7903;SDS011;3997;48.416;8.512;2022-08-30T03:20:03;10.15;;;8.48;;
7903;SDS011;3997;48.416;8.512;2022-08-30T03:22:30;8.57;;;7.72;;
7903;SDS011;3997;48.416;8.512;2022-08-30T03:24:58;8.60;;;7.70;;
7903;SDS011;3997;48.416;8.512;2022-08-30T03:27:25;8.65;;;7.75;;
7903;SDS011;3997;48.416;8.512;2022-08-30T03:29:52;9.48;;;8.57;;
7903;SDS011;3997;48.416;8.512;2022-08-30T03:32:18;9.68;;;8.63;;
7903;SDS011;3997;48.416;8.512;2022-08-30T03:34:45;8.35;;;7.65;;
7903;SDS011;3997;48.416;8.512;2022-08-30T03:37:12;7.88;;;7.28;;
7903;SDS011;3997;48.416;8.512;2022-08-30T03:39:38;8.15;;;7.55;;
7903;SDS011;3997;48.416;8.512;2022-08-30T03:42:06;8.02;;;7.32;;
7903;SDS011;3997;48.416;8.512;2022-08-30T03:44:35;8.13;;;7.43;;
7903;SDS011;3997;48.416;8.512;2022-08-30T03:47:02;8.65;;;7.65;;
7903;SDS011;3997;48.416;8.512;2022-08-30T03:49:28;8.45;;;7.75;;
7903;SDS011;3997;48.416;8.512;2022-08-30T03:51:55;8.65;;;7.72;;
7903;SDS011;3997;48.416;8.512;2022-08-30T03:54:21;8.07;;;7.38;;
7903;SDS011;3997;48.416;8.512;2022-08-30T03:56:48;9.18;;;7.25;;
7903;SDS011;3997;48.416;8.512;2022-08-30T03:59:16;8.52;;;7.70;;
7903;SDS011;3997;48.416;8.512;2022-08-30T04:01:42;7.80;;;7.10;;
7903;SDS011;3997;48.416;8.512;2022-08-30T04:04:09;7.65;;;7.05;;
7903;SDS011;3997;48.416;8.512;2022-08-30T04:06:36;8.15;;;7.35;;
7903;SDS011;3997;48.416;8.512;2022-08-30T04:09:02;10.15;;;7.78;;
7903;SDS011;3997;48.416;8.512;2022-08-30T04:11:29;10.15;;;8.35;;
7903;SDS011;3997;48.416;8.512;2022-08-30T04:13:56;9.32;;;8.60;;
7903;SDS011;3997;48.416;8.512;2022-08-30T04:16:24;9.80;;;8.93;;
7903;SDS011;3997;48.416;8.512;2022-08-30T04:18:50;9.60;;;8.45;;
7903;SDS011;3997;48.416;8.512;2022-08-30T04:21:17;8.63;;;8.00;;
7903;SDS011;3997;48.416;8.512;2022-08-30T04:23:43;8.27;;;7.53;;
7903;SDS011;3997;48.416;8.512;2022-08-30T04:26:10;7.63;;;7.03;;
7903;SDS011;3997;48.416;8.512;2022-08-30T04:28:37;8.48;;;7.68;;
7903;SDS011;3997;48.416;8.512;2022-08-30T04:31:06;8.32;;;7.50;;
7903;SDS011;3997;48.416;8.512;2022-08-30T04:33:34;7.70;;;7.00;;
7903;SDS011;3997;48.416;8.512;2022-08-30T04:36:00;9.18;;;8.45;;
7903;SDS011;3997;48.416;8.512;2022-08-30T04:38:29;8.95;;;8.25;;
7903;SDS011;3997;48.416;8.512;2022-08-30T04:40:55;9.20;;;8.30;;
7903;SDS011;3997;48.416;8.512;2022-08-30T04:43:22;8.55;;;7.70;;
7903;SDS011;3997;48.416;8.512;2022-08-30T04:45:50;9.07;;;8.15;;
7903;SDS011;3997;48.416;8.512;2022-08-30T04:48:16;9.27;;;8.38;;
7903;SDS011;3997;48.416;8.512;2022-08-30T04:50:44;9.05;;;8.20;;
7903;SDS011;3997;48.416;8.512;2022-08-30T04:53:11;8.40;;;7.70;;
7903;SDS011;3997;48.416;8.512;2022-08-30T04:55:38;8.80;;;8.00;;
7903;SDS011;3997;48.416;8.512;2022-08-30T04:58:04;8.63;;;7.93;;
7903;SDS011;3997;48.416;8.512;2022-08-30T05:00:31;9.40;;;8.60;;
7903;SDS011;3997;48.416;8.512;2022-08-30T05:02:57;8.82;;;7.93;;
7903;SDS011;3997;48.416;8.512;2022-08-30T05:05:24;11.18;;;8.88;;
7903;SDS011;3997;48.416;8.512;2022-08-30T05:08:07;9.95;;;9.15;;
7903;SDS011;3997;48.416;8.512;2022-08-30T05:10:35;9.63;;;8.70;;
7903;SDS011;3997;48.416;8.512;2022-08-30T05:13:03;9.40;;;8.70;;
7903;SDS011;3997;48.416;8.512;2022-08-30T05:15:29;8.73;;;8.02;;
7903;SDS011;3997;48.416;8.512;2022-08-30T05:17:55;9.98;;;8.38;;
7903;SDS011;3997;48.416;8.512;2022-08-30T05:20:22;9.20;;;8.40;;
7903;SDS011;3997;48.416;8.512;2022-08-30T05:22:48;9.15;;;8.38;;
7903;SDS011;3997;48.416;8.512;2022-08-30T05:25:17;8.32;;;7.55;;
7903;SDS011;3997;48.416;8.512;2022-08-30T05:27:44;9.70;;;8.80;;
7903;SDS011;3997;48.416;8.512;2022-08-30T05:30:11;9.70;;;8.80;;
7903;SDS011;3997;48.416;8.512;2022-08-30T05:32:37;9.60;;;8.80;;
7903;SDS011;3997;48.416;8.512;2022-08-30T05:35:04;9.27;;;8.48;;
7903;SDS011;3997;48.416;8.512;2022-08-30T05:37:31;9.07;;;8.23;;
7903;SDS011;3997;48.416;8.512;2022-08-30T05:39:58;8.77;;;8.07;;
7903;SDS011;3997;48.416;8.512;2022-08-30T05:42:26;9.73;;;8.80;;
7903;SDS011;3997;48.416;8.512;2022-08-30T05:44:53;8.88;;;8.15;;
7903;SDS011;3997;48.416;8.512;2022-08-30T05:47:20;8.80;;;7.90;;
7903;SDS011;3997;48.416;8.512;2022-08-30T05:49:47;9.27;;;8.55;;
7903;SDS011;3997;48.416;8.512;2022-08-30T05:52:13;9.50;;;8.55;;
7903;SDS011;3997;48.416;8.512;2022-08-30T05:54:42;9.50;;;8.50;;
7903;SDS011;3997;48.416;8.512;2022-08-30T05:57:08;9.70;;;8.82;;
7903;SDS011;3997;48.416;8.512;2022-08-30T05:59:36;9.60;;;8.80;;
7903;SDS011;3997;48.416;8.512;2022-08-30T06:02:03;10.00;;;9.02;;
7903;SDS011;3997;48.416;8.512;2022-08-30T06:04:31;9.95;;;9.15;;
7903;SDS011;3997;48.416;8.512;2022-08-30T06:06:57;10.93;;;10.02;;
7903;SDS011;3997;48.416;8.512;2022-08-30T06:09:24;10.40;;;9.60;;
7903;SDS011;3997;48.416;8.512;2022-08-30T06:11:50;9.18;;;8.38;;
7903;SDS011;3997;48.416;8.512;2022-08-30T06:14:17;9.90;;;9.10;;
7903;SDS011;3997;48.416;8.512;2022-08-30T06:16:45;10.05;;;9.15;;
7903;SDS011;3997;48.416;8.512;2022-08-30T06:19:11;11.07;;;10.02;;
7903;SDS011;3997;48.416;8.512;2022-08-30T06:21:39;10.80;;;9.70;;
7903;SDS011;3997;48.416;8.512;2022-08-30T06:24:06;9.95;;;9.15;;
7903;SDS011;3997;48.416;8.512;2022-08-30T06:26:35;10.98;;;9.88;;
7903;SDS011;3997;48.416;8.512;2022-08-30T06:29:02;11.02;;;9.88;;
7903;SDS011;3997;48.416;8.512;2022-08-30T06:31:28;9.02;;;8.23;;
7903;SDS011;3997;48.416;8.512;2022-08-30T06:33:56;8.93;;;8.13;;
7903;SDS011;3997;48.416;8.512;2022-08-30T06:36:23;10.05;;;9.13;;
7903;SDS011;3997;48.416;8.512;2022-08-30T06:38:50;9.60;;;8.70;;
7903;SDS011;3997;48.416;8.512;2022-08-30T06:41:17;8.25;;;7.65;;
7903;SDS011;3997;48.416;8.512;2022-08-30T06:43:44;9.57;;;8.40;;
7903;SDS011;3997;48.416;8.512;2022-08-30T06:46:11;9.60;;;8.13;;
7903;SDS011;3997;48.416;8.512;2022-08-30T06:48:38;9.00;;;8.05;;
7903;SDS011;3997;48.416;8.512;2022-08-30T06:51:05;9.07;;;8.07;;
7903;SDS011;3997;48.416;8.512;2022-08-30T06:53:32;9.00;;;8.10;;
7903;SDS011;3997;48.416;8.512;2022-08-30T06:55:59;8.18;;;7.45;;
7903;SDS011;3997;48.416;8.512;2022-08-30T06:58:26;8.65;;;7.63;;
7903;SDS011;3997;48.416;8.512;2022-08-30T07:00:52;8.38;;;7.57;;
7903;SDS011;3997;48.416;8.512;2022-08-30T07:03:19;8.05;;;7.25;;
7903;SDS011;3997;48.416;8.512;2022-08-30T07:05:46;7.63;;;7.03;;
7903;SDS011;3997;48.416;8.512;2022-08-30T07:08:14;8.77;;;7.88;;
7903;SDS011;3997;48.416;8.512;2022-08-30T07:10:41;8.95;;;8.05;;
7903;SDS011;3997;48.416;8.512;2022-08-30T07:13:07;8.88;;;8.00;;
7903;SDS011;3997;48.416;8.512;2022-08-30T07:15:34;8.13;;;7.53;;
7903;SDS011;3997;48.416;8.512;2022-08-30T07:18:01;8.25;;;7.65;;
7903;SDS011;3997;48.416;8.512;2022-08-30T07:20:45;8.43;;;7.60;;
7903;SDS011;3997;48.416;8.512;2022-08-30T07:23:11;9.63;;;8.82;;
7903;SDS011;3997;48.416;8.512;2022-08-30T07:25:39;9.82;;;8.63;;
7903;SDS011;3997;48.416;8.512;2022-08-30T07:28:06;9.27;;;8.40;;
7903;SDS011;3997;48.416;8.512;2022-08-30T07:30:33;8.70;;;7.90;;
7903;SDS011;3997;48.416;8.512;2022-08-30T07:33:00;9.88;;;8.93;;
7903;SDS011;3997;48.416;8.512;2022-08-30T07:35:26;8.65;;;7.75;;
7903;SDS011;3997;48.416;8.512;2022-08-30T07:37:53;8.60;;;7.80;;
7903;SDS011;3997;48.416;8.512;2022-08-30T07:40:19;8.18;;;7.38;;
7903;SDS011;3997;48.416;8.512;2022-08-30T07:42:47;8.13;;;7.45;;
7903;SDS011;3997;48.416;8.512;2022-08-30T07:45:13;8.63;;;7.82;;
7903;SDS011;3997;48.416;8.512;2022-08-30T07:47:40;9.05;;;7.97;;
7903;SDS011;3997;48.416;8.512;2022-08-30T07:50:07;7.75;;;7.15;;
7903;SDS011;3997;48.416;8.512;2022-08-30T07:52:33;7.90;;;7.25;;
7903;SDS011;3997;48.416;8.512;2022-08-30T07:55:00;8.48;;;7.55;;
7903;SDS011;3997;48.416;8.512;2022-08-30T07:57:26;7.15;;;6.65;;
7903;SDS011;3997;48.416;8.512;2022-08-30T07:59:56;8.52;;;7.82;;
7903;SDS011;3997;48.416;8.512;2022-08-30T08:02:23;7.43;;;6.88;;
7903;SDS011;3997;48.416;8.512;2022-08-30T08:04:49;6.93;;;6.43;;
7903;SDS011;3997;48.416;8.512;2022-08-30T08:07:16;7.28;;;6.68;;
7903;SDS011;3997;48.416;8.512;2022-08-30T08:09:42;8.13;;;6.05;;
7903;SDS011;3997;48.416;8.512;2022-08-30T08:12:09;7.60;;;7.00;;
7903;SDS011;3997;48.416;8.512;2022-08-30T08:14:35;6.82;;;6.32;;
7903;SDS011;3997;48.416;8.512;2022-08-30T08:17:03;6.53;;;6.05;;
7903;SDS011;3997;48.416;8.512;2022-08-30T08:19:30;6.60;;;6.10;;
7903;SDS011;3997;48.416;8.512;2022-08-30T08:21:57;7.47;;;6.78;;
7903;SDS011;3997;48.416;8.512;2022-08-30T08:24:24;6.80;;;6.40;;
7903;SDS011;3997;48.416;8.512;2022-08-30T08:26:51;6.68;;;6.18;;
7903;SDS011;3997;48.416;8.512;2022-08-30T08:29:17;6.88;;;6.28;;
7903;SDS011;3997;48.416;8.512;2022-08-30T08:31:44;6.60;;;6.07;;
7903;SDS011;3997;48.416;8.512;2022-08-30T08:34:12;8.02;;;7.25;;
7903;SDS011;3997;48.416;8.512;2022-08-30T08:36:39;7.15;;;6.63;;
7903;SDS011;3997;48.416;8.512;2022-08-30T08:39:06;6.53;;;5.95;;
7903;SDS011;3997;48.416;8.512;2022-08-30T08:41:39;6.22;;;5.78;;
7903;SDS011;3997;48.416;8.512;2022-08-30T08:44:07;7.90;;;7.30;;
7903;SDS011;3997;48.416;8.512;2022-08-30T08:46:40;6.32;;;5.93;;
7903;SDS011;3997;48.416;8.512;2022-08-30T08:49:09;5.93;;;5.53;;
7903;SDS011;3997;48.416;8.512;2022-08-30T08:51:38;5.95;;;5.55;;
7903;SDS011;3997;48.416;8.512;2022-08-30T08:54:23;6.60;;;5.97;;
7903;SDS011;3997;48.416;8.512;2022-08-30T08:56:51;6.20;;;5.65;;
7903;SDS011;3997;48.416;8.512;2022-08-30T08:59:18;6.15;;;5.75;;
7903;SDS011;3997;48.416;8.512;2022-08-30T09:01:45;6.95;;;6.55;;
7903;SDS011;3997;48.416;8.512;2022-08-30T09:04:13;7.30;;;6.70;;
7903;SDS011;3997;48.416;8.512;2022-08-30T09:06:49;6.10;;;5.60;;
7903;SDS011;3997;48.416;8.512;2022-08-30T09:09:18;6.68;;;6.15;;
7903;SDS011;3997;48.416;8.512;2022-08-30T09:11:46;6.90;;;6.50;;
7903;SDS011;3997;48.416;8.512;2022-08-30T09:14:13;6.55;;;6.15;;
7903;SDS011;3997;48.416;8.512;2022-08-30T09:16:45;7.50;;;7.00;;
7903;SDS011;3997;48.416;8.512;2022-08-30T09:19:20;6.60;;;6.18;;
7903;SDS011;3997;48.416;8.512;2022-08-30T09:21:56;6.40;;;6.00;;
7903;SDS011;3997;48.416;8.512;2022-08-30T09:24:22;5.55;;;5.18;;
7903;SDS011;3997;48.416;8.512;2022-08-30T09:26:49;6.00;;;5.45;;
7903;SDS011;3997;48.416;8.512;2022-08-30T09:29:16;6.45;;;5.95;;
7903;SDS011;3997;48.416;8.512;2022-08-30T09:31:45;6.20;;;5.72;;
7903;SDS011;3997;48.416;8.512;2022-08-30T09:34:15;5.78;;;5.13;;
7903;SDS011;3997;48.416;8.512;2022-08-30T09:36:42;5.22;;;4.80;;
7903;SDS011;3997;48.416;8.512;2022-08-30T09:39:16;5.32;;;5.03;;
7903;SDS011;3997;48.416;8.512;2022-08-30T09:41:43;6.30;;;5.90;;
7903;SDS011;3997;48.416;8.512;2022-08-30T09:44:13;6.28;;;5.88;;
7903;SDS011;3997;48.416;8.512;2022-08-30T09:46:48;6.00;;;5.70;;
7903;SDS011;3997;48.416;8.512;2022-08-30T09:52:11;6.22;;;5.72;;
7903;SDS011;3997;48.416;8.512;2022-08-30T09:54:43;6.10;;;5.70;;
7903;SDS011;3997;48.416;8.512;2022-08-30T09:57:14;6.47;;;6.07;;
7903;SDS011;3997;48.416;8.512;2022-08-30T09:59:45;5.30;;;4.82;;
7903;SDS011;3997;48.416;8.512;2022-08-30T10:02:22;5.68;;;5.18;;
7903;SDS011;3997;48.416;8.512;2022-08-30T10:04:52;6.00;;;5.13;;
7903;SDS011;3997;48.416;8.512;2022-08-30T10:07:24;5.35;;;5.05;;
7903;SDS011;3997;48.416;8.512;2022-08-30T10:09:57;5.20;;;4.80;;
7903;SDS011;3997;48.416;8.512;2022-08-30T10:12:26;4.93;;;4.60;;
7903;SDS011;3997;48.416;8.512;2022-08-30T10:14:57;5.43;;;5.03;;
7903;SDS011;3997;48.416;8.512;2022-08-30T10:17:31;5.57;;;5.18;;
7903;SDS011;3997;48.416;8.512;2022-08-30T10:20:07;5.40;;;5.00;;
7903;SDS011;3997;48.416;8.512;2022-08-30T10:22:36;6.15;;;5.75;;
7903;SDS011;3997;48.416;8.512;2022-08-30T10:25:05;5.05;;;4.75;;
7903;SDS011;3997;48.416;8.512;2022-08-30T10:27:34;4.70;;;4.40;;
7903;SDS011;3997;48.416;8.512;2022-08-30T10:30:03;4.90;;;4.60;;
7903;SDS011;3997;48.416;8.512;2022-08-30T10:32:31;6.20;;;4.55;;
7903;SDS011;3997;48.416;8.512;2022-08-30T10:35:00;4.97;;;4.57;;
7903;SDS011;3997;48.416;8.512;2022-08-30T10:37:30;5.88;;;5.57;;
7903;SDS011;3997;48.416;8.512;2022-08-30T10:39:57;5.07;;;4.43;;
7903;SDS011;3997;48.416;8.512;2022-08-30T10:42:45;4.80;;;4.40;;
7903;SDS011;3997;48.416;8.512;2022-08-30T10:45:14;4.85;;;4.55;;
7903;SDS011;3997;48.416;8.512;2022-08-30T10:47:42;5.00;;;4.60;;
7903;SDS011;3997;48.416;8.512;2022-08-30T10:50:11;5.25;;;4.85;;
7903;SDS011;3997;48.416;8.512;2022-08-30T10:52:40;5.13;;;4.72;;
7903;SDS011;3997;48.416;8.512;2022-08-30T10:55:09;5.85;;;5.45;;
7903;SDS011;3997;48.416;8.512;2022-08-30T10:57:36;5.70;;;5.35;;
7903;SDS011;3997;48.416;8.512;2022-08-30T11:00:06;5.88;;;5.38;;
7903;SDS011;3997;48.416;8.512;2022-08-30T11:05:21;5.45;;;5.15;;
7903;SDS011;3997;48.416;8.512;2022-08-30T11:07:51;6.18;;;5.60;;
7903;SDS011;3997;48.416;8.512;2022-08-30T11:10:25;6.05;;;5.65;;
7903;SDS011;3997;48.416;8.512;2022-08-30T11:12:57;5.32;;;4.50;;
7903;SDS011;3997;48.416;8.512;2022-08-30T11:15:27;4.65;;;4.40;;
7903;SDS011;3997;48.416;8.512;2022-08-30T11:17:55;4.72;;;4.40;;
7903;SDS011;3997;48.416;8.512;2022-08-30T11:20:27;5.90;;;5.30;;
7903;SDS011;3997;48.416;8.512;2022-08-30T11:25:46;5.40;;;5.10;;
7903;SDS011;3997;48.416;8.512;2022-08-30T11:28:13;4.70;;;4.20;;
7903;SDS011;3997;48.416;8.512;2022-08-30T11:31:04;4.43;;;4.22;;
7903;SDS011;3997;48.416;8.512;2022-08-30T11:33:41;4.93;;;4.53;;
7903;SDS011;3997;48.416;8.512;2022-08-30T11:36:08;4.88;;;4.57;;
7903;SDS011;3997;48.416;8.512;2022-08-30T11:41:27;5.32;;;5.03;;
7903;SDS011;3997;48.416;8.512;2022-08-30T11:43:55;5.13;;;4.82;;
7903;SDS011;3997;48.416;8.512;2022-08-30T11:46:38;5.95;;;5.63;;
7903;SDS011;3997;48.416;8.512;2022-08-30T11:51:55;6.40;;;5.82;;
7903;SDS011;3997;48.416;8.512;2022-08-30T11:54:30;5.57;;;5.15;;
7903;SDS011;3997;48.416;8.512;2022-08-30T11:57:01;5.85;;;5.55;;
7903;SDS011;3997;48.416;8.512;2022-08-30T11:59:31;4.20;;;4.00;;
7903;SDS011;3997;48.416;8.512;2022-08-30T12:02:01;13.25;;;6.32;;
7903;SDS011;3997;48.416;8.512;2022-08-30T12:04:34;4.47;;;4.18;;
7903;SDS011;3997;48.416;8.512;2022-08-30T12:07:02;4.78;;;4.38;;
7903;SDS011;3997;48.416;8.512;2022-08-30T12:12:11;7.60;;;4.40;;
7903;SDS011;3997;48.416;8.512;2022-08-30T12:14:57;4.70;;;4.40;;
7903;SDS011;3997;48.416;8.512;2022-08-30T12:17:27;5.55;;;5.25;;
7903;SDS011;3997;48.416;8.512;2022-08-30T12:20:18;5.30;;;4.90;;
7903;SDS011;3997;48.416;8.512;2022-08-30T12:22:45;4.60;;;4.40;;
7903;SDS011;3997;48.416;8.512;2022-08-30T12:25:12;5.20;;;4.90;;
7903;SDS011;3997;48.416;8.512;2022-08-30T12:27:40;5.18;;;4.78;;
7903;SDS011;3997;48.416;8.512;2022-08-30T12:30:07;4.80;;;4.30;;
7903;SDS011;3997;48.416;8.512;2022-08-30T12:32:41;4.85;;;4.40;;
7903;SDS011;3997;48.416;8.512;2022-08-30T12:35:15;4.47;;;4.18;;
7903;SDS011;3997;48.416;8.512;2022-08-30T12:37:42;5.25;;;4.97;;
7903;SDS011;3997;48.416;8.512;2022-08-30T12:40:10;5.88;;;5.43;;
7903;SDS011;3997;48.416;8.512;2022-08-30T12:42:38;4.55;;;4.18;;
7903;SDS011;3997;48.416;8.512;2022-08-30T12:45:06;4.85;;;4.40;;
7903;SDS011;3997;48.416;8.512;2022-08-30T12:47:38;5.00;;;4.60;;
7903;SDS011;3997;48.416;8.512;2022-08-30T12:50:07;5.70;;;5.40;;
7903;SDS011;3997;48.416;8.512;2022-08-30T12:52:35;5.28;;;4.88;;
7903;SDS011;3997;48.416;8.512;2022-08-30T12:55:09;4.65;;;4.40;;
7903;SDS011;3997;48.416;8.512;2022-08-30T12:57:37;4.47;;;4.20;;
7903;SDS011;3997;48.416;8.512;2022-08-30T13:00:04;5.05;;;4.75;;
7903;SDS011;3997;48.416;8.512;2022-08-30T13:02:44;5.50;;;5.03;;
7903;SDS011;3997;48.416;8.512;2022-08-30T13:07:52;5.20;;;4.90;;
7903;SDS011;3997;48.416;8.512;2022-08-30T13:10:32;5.28;;;5.00;;
7903;SDS011;3997;48.416;8.512;2022-08-30T13:13:00;4.32;;;4.03;;
7903;SDS011;3997;48.416;8.512;2022-08-30T13:15:28;4.97;;;4.68;;
7903;SDS011;3997;48.416;8.512;2022-08-30T13:18:11;5.57;;;5.28;;
7903;SDS011;3997;48.416;8.512;2022-08-30T13:20:37;4.30;;;4.00;;
7903;SDS011;3997;48.416;8.512;2022-08-30T13:23:05;4.72;;;4.47;;
7903;SDS011;3997;48.416;8.512;2022-08-30T13:25:32;4.07;;;3.88;;
7903;SDS011;3997;48.416;8.512;2022-08-30T13:28:00;4.50;;;4.20;;
7903;SDS011;3997;48.416;8.512;2022-08-30T13:30:27;5.50;;;5.20;;
7903;SDS011;3997;48.416;8.512;2022-08-30T13:32:53;4.65;;;4.25;;
7903;SDS011;3997;48.416;8.512;2022-08-30T13:35:21;4.00;;;3.80;;
7903;SDS011;3997;48.416;8.512;2022-08-30T13:37:47;4.72;;;4.32;;
7903;SDS011;3997;48.416;8.512;2022-08-30T13:40:14;4.50;;;4.20;;
7903;SDS011;3997;48.416;8.512;2022-08-30T13:42:41;5.45;;;5.13;;
7903;SDS011;3997;48.416;8.512;2022-08-30T13:45:08;5.30;;;5.00;;
7903;SDS011;3997;48.416;8.512;2022-08-30T13:47:35;4.75;;;4.45;;
7903;SDS011;3997;48.416;8.512;2022-08-30T13:50:02;4.28;;;4.03;;
7903;SDS011;3997;48.416;8.512;2022-08-30T13:52:30;4.90;;;4.60;;
7903;SDS011;3997;48.416;8.512;2022-08-30T13:54:56;4.10;;;3.90;;
7903;SDS011;3997;48.416;8.512;2022-08-30T13:57:24;5.43;;;5.13;;
7903;SDS011;3997;48.416;8.512;2022-08-30T13:59:51;5.30;;;5.00;;
7903;SDS011;3997;48.416;8.512;2022-08-30T14:02:17;4.35;;;4.15;;
7903;SDS011;3997;48.416;8.512;2022-08-30T14:04:43;4.80;;;4.50;;
7903;SDS011;3997;48.416;8.512;2022-08-30T14:07:10;4.78;;;4.40;;
7903;SDS011;3997;48.416;8.512;2022-08-30T14:09:38;4.55;;;4.25;;
7903;SDS011;3997;48.416;8.512;2022-08-30T14:12:04;5.50;;;5.20;;
7903;SDS011;3997;48.416;8.512;2022-08-30T14:14:31;5.07;;;4.68;;
7903;SDS011;3997;48.416;8.512;2022-08-30T14:16:57;4.32;;;4.10;;
7903;SDS011;3997;48.416;8.512;2022-08-30T14:19:24;5.20;;;4.85;;
7903;SDS011;3997;48.416;8.512;2022-08-30T14:21:50;5.30;;;5.00;;
7903;SDS011;3997;48.416;8.512;2022-08-30T14:24:17;4.10;;;3.90;;
7903;SDS011;3997;48.416;8.512;2022-08-30T14:26:46;4.15;;;3.90;;
7903;SDS011;3997;48.416;8.512;2022-08-30T14:29:14;4.50;;;4.20;;
7903;SDS011;3997;48.416;8.512;2022-08-30T14:31:40;4.50;;;4.20;;
7903;SDS011;3997;48.416;8.512;2022-08-30T14:34:07;4.68;;;4.38;;
7903;SDS011;3997;48.416;8.512;2022-08-30T14:36:35;4.55;;;4.28;;
7903;SDS011;3997;48.416;8.512;2022-08-30T14:39:03;4.72;;;4.35;;
7903;SDS011;3997;48.416;8.512;2022-08-30T14:41:30;4.50;;;4.10;;
7903;SDS011;3997;48.416;8.512;2022-08-30T14:43:58;4.53;;;4.22;;
7903;SDS011;3997;48.416;8.512;2022-08-30T14:46:25;4.50;;;4.20;;
7903;SDS011;3997;48.416;8.512;2022-08-30T14:48:51;4.95;;;4.40;;
7903;SDS011;3997;48.416;8.512;2022-08-30T14:51:21;4.80;;;4.40;;
7903;SDS011;3997;48.416;8.512;2022-08-30T14:53:49;5.20;;;4.90;;
7903;SDS011;3997;48.416;8.512;2022-08-30T14:56:17;5.85;;;5.45;;
7903;SDS011;3997;48.416;8.512;2022-08-30T14:58:44;5.28;;;4.93;;
7903;SDS011;3997;48.416;8.512;2022-08-30T15:01:12;4.75;;;4.47;;
7903;SDS011;3997;48.416;8.512;2022-08-30T15:03:38;5.30;;;4.80;;
7903;SDS011;3997;48.416;8.512;2022-08-30T15:06:05;4.65;;;4.35;;
7903;SDS011;3997;48.416;8.512;2022-08-30T15:08:32;4.45;;;4.15;;
7903;SDS011;3997;48.416;8.512;2022-08-30T15:10:59;4.40;;;4.10;;
7903;SDS011;3997;48.416;8.512;2022-08-30T15:13:26;4.30;;;4.00;;
7903;SDS011;3997;48.416;8.512;2022-08-30T15:15:53;4.47;;;4.18;;
7903;SDS011;3997;48.416;8.512;2022-08-30T15:18:20;4.50;;;4.10;;
7903;SDS011;3997;48.416;8.512;2022-08-30T15:20:48;4.72;;;4.32;;
7903;SDS011;3997;48.416;8.512;2022-08-30T15:23:15;5.30;;;5.00;;
7903;SDS011;3997;48.416;8.512;2022-08-30T15:25:42;5.55;;;5.05;;
7903;SDS011;3997;48.416;8.512;2022-08-30T15:28:09;5.95;;;5.57;;
7903;SDS011;3997;48.416;8.512;2022-08-30T15:30:35;5.32;;;5.03;;
7903;SDS011;3997;48.416;8.512;2022-08-30T15:33:02;5.95;;;5.65;;
7903;SDS011;3997;48.416;8.512;2022-08-30T15:35:30;4.85;;;4.55;;
7903;SDS011;3997;48.416;8.512;2022-08-30T15:37:56;4.30;;;4.00;;
7903;SDS011;3997;48.416;8.512;2022-08-30T15:40:23;5.30;;;5.00;;